Time;durP1;ratioP1;P1;durP2;ratioP2;P2;SDS_P1;SDS_P2;PMS_P1;PMS_P2;Temp;Humidity;BMP_temperature;BMP_pressure;BME280_temperature;BME280_humidity;BME280_pressure;Samples;Min_cycle;Max_cycle;Signal;HPM_P1;HPM_P2
2023/10/01 00:00:00;;;;;;;12.52;3.33;;;15.80;47.20;;;;;;6239217;28;20523;-76
2023/10/01 00:03:04;;;;;;;12.73;3.42;;;15.80;45.70;;;;;;6222897;28;20090;-79
2023/10/01 00:06:05;;;;;;;10.32;3.10;;;15.80;48.90;;;;;;6246643;28;20624;-78
2023/10/01 00:09:07;;;;;;;13.68;3.75;;;15.80;45.10;;;;;;6222712;28;20157;-78
2023/10/01 00:12:10;;;;;;;14.00;3.58;;;15.80;43.60;;;;;;6246350;28;20053;-79
2023/10/01 00:15:12;;;;;;;14.98;3.75;;;15.90;45.00;;;;;;6215742;28;20053;-80
2023/10/01 00:18:14;;;;;;;10.65;3.08;;;16.00;43.40;;;;;;6246382;28;20053;-78
2023/10/01 00:21:16;;;;;;;13.43;3.13;;;16.00;45.60;;;;;;6222894;28;20072;-81
2023/10/01 00:24:17;;;;;;;14.25;4.35;;;16.00;46.10;;;;;;6245881;28;20123;-81
2023/10/01 00:27:19;;;;;;;15.90;3.55;;;16.00;44.80;;;;;;6222755;28;20049;-79
2023/10/01 00:30:21;;;;;;;14.88;3.60;;;16.00;43.70;;;;;;6243055;28;20053;-78
2023/10/01 00:33:23;;;;;;;13.68;3.33;;;15.90;43.90;;;;;;6197643;28;20054;-79
2023/10/01 00:36:25;;;;;;;10.80;3.10;;;15.90;46.10;;;;;;6245234;28;20053;-79
2023/10/01 00:39:27;;;;;;;9.85;3.35;;;15.90;49.40;;;;;;6221830;28;20084;-78
2023/10/01 00:42:29;;;;;;;11.45;3.42;;;15.90;46.60;;;;;;6243381;28;20052;-79
2023/10/01 00:45:30;;;;;;;13.68;3.35;;;15.90;46.90;;;;;;6230860;28;20069;-78
2023/10/01 00:48:32;;;;;;;10.68;3.80;;;15.90;47.10;;;;;;6225283;28;20516;-78
2023/10/01 00:51:33;;;;;;;11.50;3.45;;;15.90;48.10;;;;;;6250617;28;20050;-78
2023/10/01 00:54:35;;;;;;;12.65;3.42;;;15.80;48.70;;;;;;6223903;28;20049;-78
2023/10/01 00:57:37;;;;;;;10.35;3.17;;;15.80;49.40;;;;;;6236177;28;20057;-77
2023/10/01 01:00:39;;;;;;;10.60;3.28;;;15.80;50.90;;;;;;6221434;28;20072;-77
2023/10/01 01:03:40;;;;;;;15.75;4.20;;;15.80;50.80;;;;;;6244888;28;20060;-77
2023/10/01 01:06:43;;;;;;;12.90;3.42;;;15.80;50.40;;;;;;6221357;28;20061;-78
2023/10/01 01:09:45;;;;;;;10.93;3.53;;;15.80;52.30;;;;;;6244946;28;20058;-78
2023/10/01 01:12:53;;;;;;;13.38;3.45;;;15.80;50.70;;;;;;6223032;28;20779;-78
2023/10/01 01:15:57;;;;;;;12.68;3.15;;;15.70;52.10;;;;;;6245433;28;20516;-78
2023/10/01 01:19:00;;;;;;;13.90;3.40;;;15.70;50.00;;;;;;6221109;28;20108;-78
2023/10/01 01:22:02;;;;;;;12.98;3.47;;;15.70;50.90;;;;;;6244946;28;20107;-78
2023/10/01 01:25:19;;;;;;;9.85;3.63;;;15.60;53.10;;;;;;6221457;28;20053;-78
2023/10/01 01:28:25;;;;;;;10.40;3.10;;;15.60;51.80;;;;;;6210315;28;20064;-77
2023/10/01 01:31:28;;;;;;;10.02;3.17;;;15.50;50.40;;;;;;6220789;28;20065;-78
2023/10/01 01:34:30;;;;;;;12.57;3.20;;;15.40;51.30;;;;;;6244423;28;20099;-78
2023/10/01 01:37:47;;;;;;;9.98;2.90;;;15.30;50.60;;;;;;6220820;28;20046;-78
2023/10/01 01:40:51;;;;;;;16.58;3.95;;;15.20;53.60;;;;;;6195030;28;20054;-79
2023/10/01 01:43:53;;;;;;;14.80;3.45;;;15.20;60.00;;;;;;6229843;28;20513;-80
2023/10/01 01:47:00;;;;;;;13.55;3.85;;;15.20;57.70;;;;;;6244823;28;20080;-80
2023/10/01 01:50:17;;;;;;;14.27;3.33;;;15.20;59.90;;;;;;6195958;28;20101;-79
2023/10/01 01:53:19;;;;;;;12.50;3.40;;;15.20;61.00;;;;;;6196385;28;20137;-78
2023/10/01 01:56:21;;;;;;;15.52;3.72;;;15.20;58.70;;;;;;6243684;28;20045;-78
2023/10/01 01:59:24;;;;;;;12.00;3.95;;;15.30;59.60;;;;;;6215793;28;20057;-79
2023/10/01 02:02:26;;;;;;;14.85;3.85;;;15.30;59.10;;;;;;6244362;28;20064;-78
2023/10/01 02:05:29;;;;;;;15.75;3.20;;;14.50;88.20;;;;;;6216468;28;20155;-78
2023/10/01 02:11:57;;;;;;;15.63;4.13;;;15.40;59.90;;;;;;6195604;28;20058;-78
2023/10/01 02:15:02;;;;;;;17.27;4.53;;;15.40;60.80;;;;;;6254510;28;20519;-79
2023/10/01 02:18:08;;;;;;;12.07;3.67;;;15.50;61.10;;;;;;6195395;28;20185;-78
2023/10/01 02:21:17;;;;;;;18.40;4.03;;;15.40;60.30;;;;;;6195326;28;20568;-79
2023/10/01 02:24:22;;;;;;;17.10;4.57;;;15.50;62.20;;;;;;6195552;28;20079;-79
2023/10/01 02:27:28;;;;;;;16.35;4.10;;;15.60;62.10;;;;;;6242624;28;20080;-79
2023/10/01 02:30:30;;;;;;;12.90;3.97;;;15.60;63.70;;;;;;6216240;28;20058;-79
2023/10/01 02:33:55;;;;;;;15.18;4.38;;;15.60;63.60;;;;;;6194863;28;20054;-78
2023/10/01 02:36:55;;;;;;;15.15;4.38;;;15.70;62.60;;;;;;6194813;28;20050;-79
2023/10/01 02:39:59;;;;;;;12.18;3.70;;;15.80;62.60;;;;;;6242738;28;20842;-79
2023/10/01 02:43:03;;;;;;;14.07;3.88;;;15.90;61.50;;;;;;6223207;28;20061;-80
2023/10/01 02:46:07;;;;;;;15.70;3.92;;;16.00;61.90;;;;;;6222593;28;20058;-81
2023/10/01 02:49:12;;;;;;;17.65;3.97;;;16.00;60.00;;;;;;6243139;28;20053;-78
2023/10/01 02:52:14;;;;;;;15.32;4.45;;;16.00;60.80;;;;;;6219041;28;20111;-79
2023/10/01 02:55:19;;;;;;;14.55;3.80;;;16.10;62.10;;;;;;6241792;28;20072;-77
2023/10/01 02:58:26;;;;;;;18.02;4.03;;;16.20;62.90;;;;;;6220820;28;20053;-77
2023/10/01 03:01:29;;;;;;;12.88;3.40;;;16.20;61.20;;;;;;6209754;28;20062;-78
2023/10/01 03:04:30;;;;;;;13.57;3.90;;;16.20;62.20;;;;;;6242311;28;20061;-78
2023/10/01 03:07:37;;;;;;;16.08;4.10;;;16.20;63.90;;;;;;6217611;28;20050;-79
2023/10/01 03:10:39;;;;;;;17.40;3.58;;;16.20;61.50;;;;;;6194891;28;20058;-78
2023/10/01 03:13:46;;;;;;;11.57;3.40;;;16.20;61.60;;;;;;6230080;28;20058;-78
2023/10/01 03:16:53;;;;;;;14.15;3.67;;;16.20;62.30;;;;;;6199227;28;20054;-78
2023/10/01 03:20:11;;;;;;;14.35;4.38;;;16.20;62.40;;;;;;6199644;28;20084;-79
2023/10/01 03:23:17;;;;;;;15.30;3.25;;;16.20;62.10;;;;;;6199207;28;20409;-79
2023/10/01 03:26:19;;;;;;;16.98;4.18;;;16.10;62.00;;;;;;6199707;28;20058;-78
2023/10/01 03:29:34;;;;;;;15.65;3.80;;;16.10;65.30;;;;;;6245024;28;20057;-79
2023/10/01 03:32:40;;;;;;;14.25;4.68;;;16.10;63.90;;;;;;6199139;28;20516;-79
2023/10/01 03:35:42;;;;;;;15.23;4.28;;;16.00;64.80;;;;;;6247609;28;20082;-79
2023/10/01 03:38:44;;;;;;;12.55;3.97;;;15.90;64.20;;;;;;6223485;28;20049;-81
2023/10/01 03:42:10;;;;;;;12.55;3.83;;;16.00;65.90;;;;;;6245698;28;20053;-79
2023/10/01 03:48:57;;;;;;;17.30;3.78;;;16.00;66.00;;;;;;6223370;28;20053;-79
2023/10/01 03:52:01;;;;;;;16.00;4.22;;;16.00;65.80;;;;;;6198713;28;20054;-78
2023/10/01 03:55:25;;;;;;;15.45;3.60;;;16.00;67.40;;;;;;6261456;28;20050;-79
2023/10/01 03:58:29;;;;;;;14.50;3.85;;;16.00;67.30;;;;;;6211536;28;20057;-80
2023/10/01 04:01:58;;;;;;;15.40;4.45;;;16.00;67.40;;;;;;6220479;28;20053;-78
2023/10/01 04:04:58;;;;;;;14.20;3.75;;;16.00;68.20;;;;;;6197670;28;20057;-78
2023/10/01 04:08:08;;;;;;;13.65;3.95;;;16.00;68.30;;;;;;6233626;28;20100;-78
2023/10/01 04:11:11;;;;;;;15.45;3.95;;;16.00;68.50;;;;;;6198121;28;20061;-77
2023/10/01 04:14:17;;;;;;;14.80;4.00;;;16.10;68.60;;;;;;6226195;28;20088;-79
2023/10/01 04:17:19;;;;;;;15.15;4.40;;;16.00;67.40;;;;;;6198076;28;20062;-79
2023/10/01 04:20:20;;;;;;;10.98;3.47;;;16.00;69.60;;;;;;6245648;28;20060;-79
2023/10/01 04:23:29;;;;;;;12.77;3.95;;;16.00;70.00;;;;;;6221805;28;20064;-78
2023/10/01 04:26:33;;;;;;;14.43;4.10;;;16.00;69.20;;;;;;6246839;28;20060;-79
2023/10/01 04:29:44;;;;;;;12.80;3.58;;;16.00;71.20;;;;;;6218366;28;20094;-79
2023/10/01 04:32:47;;;;;;;23.02;4.38;;;16.10;70.40;;;;;;6198377;28;20054;-79
2023/10/01 04:35:51;;;;;;;18.10;4.47;;;16.00;71.90;;;;;;6245827;28;20051;-79
2023/10/01 04:39:00;;;;;;;16.67;3.85;;;15.90;70.10;;;;;;6222176;28;20565;-78
2023/10/01 04:42:02;;;;;;;18.42;4.18;;;15.90;69.80;;;;;;6212493;28;20426;-78
2023/10/01 04:45:22;;;;;;;15.98;4.07;;;15.80;70.30;;;;;;6232001;28;20591;-79
2023/10/01 04:48:24;;;;;;;18.85;4.40;;;15.90;72.20;;;;;;6197521;28;20174;-79
2023/10/01 04:51:44;;;;;;;19.52;4.43;;;15.90;74.40;;;;;;6245129;28;20061;-78
2023/10/01 04:54:49;;;;;;;14.85;4.13;;;15.90;75.80;;;;;;6197470;28;20042;-78
2023/10/01 04:57:51;;;;;;;14.63;4.55;;;15.60;91.90;;;;;;6233320;28;21067;-78
2023/10/01 05:00:54;;;;;;;14.50;4.13;;;15.90;73.20;;;;;;6221644;28;20050;-79
2023/10/01 05:03:56;;;;;;;13.32;4.43;;;15.30;85.50;;;;;;6245654;28;20060;-79
2023/10/01 05:07:04;;;;;;;15.55;4.78;;;15.90;75.80;;;;;;6219617;28;20508;-78
2023/10/01 05:10:08;;;;;;;18.63;4.60;;;15.90;75.10;;;;;;6221441;28;20413;-78
2023/10/01 05:13:12;;;;;;;14.50;5.00;;;15.90;75.40;;;;;;6234240;28;20497;-82
2023/10/01 05:16:14;;;;;;;14.25;4.35;;;16.00;76.50;;;;;;6245246;28;20053;-77
2023/10/01 05:19:16;;;;;;;20.02;5.15;;;16.10;75.80;;;;;;6221590;28;20062;-77
2023/10/01 05:22:17;;;;;;;14.48;4.55;;;16.10;74.80;;;;;;6245054;28;20049;-78
2023/10/01 05:25:19;;;;;;;19.15;5.28;;;16.10;74.90;;;;;;6221231;28;20559;-78
2023/10/01 05:28:23;;;;;;;18.92;4.88;;;16.20;74.40;;;;;;6233639;28;20065;-77
2023/10/01 05:31:25;;;;;;;16.58;5.13;;;16.20;75.40;;;;;;6245395;28;20497;-78
2023/10/01 05:34:28;;;;;;;18.17;5.38;;;16.20;74.60;;;;;;6221164;28;20057;-78
2023/10/01 05:37:36;;;;;;;18.88;4.80;;;16.20;74.60;;;;;;6244877;28;20720;-78
2023/10/01 05:40:40;;;;;;;17.85;4.93;;;16.30;73.80;;;;;;6211420;28;20153;-78
2023/10/01 05:43:50;;;;;;;14.63;5.00;;;16.30;74.80;;;;;;6233059;28;20394;-77
2023/10/01 05:46:51;;;;;;;;;;;16.40;73.60;;;;;;6245586;28;20068;-77
2023/10/01 05:49:53;;;;;;;14.95;4.90;;;16.50;74.00;;;;;;6221099;28;19929;-79
2023/10/01 05:52:55;;;;;;;18.30;4.47;;;16.50;72.90;;;;;;6244567;28;20071;-78
2023/10/01 05:55:57;;;;;;;13.73;5.10;;;16.60;73.10;;;;;;6220665;28;20050;-78
2023/10/01 05:58:59;;;;;;;17.15;4.85;;;16.60;72.70;;;;;;6226109;28;20053;-78
2023/10/01 06:02:01;;;;;;;15.60;4.82;;;16.60;72.80;;;;;;6244436;28;20056;-78
2023/10/01 06:05:22;;;;;;;13.13;4.78;;;16.70;71.40;;;;;;6220804;28;20054;-79
2023/10/01 06:08:32;;;;;;;15.60;4.30;;;16.80;71.40;;;;;;6194369;28;20161;-79
2023/10/01 06:11:42;;;;;;;17.60;4.90;;;16.80;71.00;;;;;;6220056;28;20058;-79
2023/10/01 06:14:45;;;;;;;15.05;4.88;;;16.80;70.60;;;;;;6192069;28;20050;-78
2023/10/01 06:17:47;;;;;;;16.73;4.85;;;16.90;70.60;;;;;;6243828;28;20052;-79
2023/10/01 06:20:50;;;;;;;18.75;5.00;;;17.00;70.50;;;;;;6220108;28;20505;-79
2023/10/01 06:23:52;;;;;;;12.15;4.35;;;17.00;69.40;;;;;;6243646;28;20402;-78
2023/10/01 06:26:56;;;;;;;14.73;4.70;;;17.10;69.60;;;;;;6219836;28;20058;-79
2023/10/01 06:30:00;;;;;;;18.45;4.90;;;17.20;69.20;;;;;;6241343;28;20049;-80
2023/10/01 06:33:02;;;;;;;13.40;4.65;;;17.20;68.90;;;;;;6219761;28;20707;-79
2023/10/01 06:36:15;;;;;;;13.93;4.40;;;17.30;68.60;;;;;;6243446;28;20093;-78
2023/10/01 06:39:20;;;;;;;17.48;4.53;;;17.40;68.60;;;;;;6194936;28;20054;-79
2023/10/01 06:42:24;;;;;;;16.15;4.20;;;17.40;68.10;;;;;;6241462;28;20151;-80
2023/10/01 06:45:44;;;;;;;16.40;4.10;;;17.50;67.90;;;;;;6226340;28;20504;-80
2023/10/01 06:48:47;;;;;;;16.95;3.92;;;17.60;67.60;;;;;;6219348;28;20061;-80
2023/10/01 06:51:50;;;;;;;14.00;4.15;;;17.60;67.00;;;;;;6243055;28;20058;-80
2023/10/01 06:54:52;;;;;;;12.38;3.92;;;17.70;66.30;;;;;;6219146;28;20050;-81
2023/10/01 06:57:55;;;;;;;12.23;3.97;;;17.80;66.30;;;;;;6231905;28;20389;-83
2023/10/01 07:00:57;;;;;;;15.20;4.25;;;17.80;65.30;;;;;;6219402;28;20061;-82
2023/10/01 07:03:58;;;;;;;10.23;3.47;;;17.90;64.80;;;;;;6243597;28;20057;-83
2023/10/01 07:07:19;;;;;;;12.60;3.80;;;18.00;64.60;;;;;;6217708;28;20058;-81
2023/10/01 07:10:21;;;;;;;11.55;3.80;;;18.10;64.10;;;;;;6218866;28;20053;-81
2023/10/01 07:13:23;;;;;;;14.38;4.13;;;18.20;63.80;;;;;;6229798;28;20783;-82
2023/10/01 07:16:35;;;;;;;14.55;3.90;;;18.10;63.60;;;;;;6243528;28;20049;-81
2023/10/01 07:19:38;;;;;;;16.10;3.67;;;18.30;63.40;;;;;;6220203;28;20060;-81
2023/10/01 07:22:42;;;;;;;10.07;3.58;;;18.30;63.20;;;;;;6241478;28;20057;-83
2023/10/01 07:25:47;;;;;;;10.60;3.28;;;18.40;62.90;;;;;;6219091;28;20454;-81
2023/10/01 07:28:55;;;;;;;10.70;3.10;;;18.40;63.10;;;;;;6224619;28;20046;-85
2023/10/01 07:32:01;;;;;;;11.75;3.13;;;18.50;62.40;;;;;;6195604;28;20055;-83
2023/10/01 07:35:06;;;;;;;8.85;3.35;;;18.60;61.40;;;;;;6243974;28;20528;-83
2023/10/01 07:38:08;;;;;;;9.90;3.03;;;18.70;61.30;;;;;;6195458;28;20065;-85
2023/10/01 07:41:13;;;;;;;12.05;3.50;;;18.80;60.30;;;;;;6243918;28;20058;-82
2023/10/01 07:44:15;;;;;;;13.98;4.57;;;18.80;60.00;;;;;;6223047;28;20099;-82
2023/10/01 07:47:29;;;;;;;11.07;3.88;;;18.90;60.00;;;;;;6219991;28;20065;-82
2023/10/01 07:50:31;;;;;;;12.23;3.47;;;19.00;60.00;;;;;;6253890;22;20061;-75
2023/10/01 07:53:33;;;;;;;8.57;2.97;;;19.00;59.70;;;;;;6242466;28;20467;-75
2023/10/01 07:56:35;;;;;;;13.10;3.85;;;19.10;60.10;;;;;;6217000;28;20431;-74
2023/10/01 07:59:42;;;;;;;13.45;3.63;;;19.10;60.10;;;;;;6236070;28;20064;-74
2023/10/01 08:06:16;;;;;;;8.10;3.13;;;19.40;56.70;;;;;;6194431;28;20066;-75
2023/10/01 08:09:18;;;;;;;12.05;3.40;;;19.50;57.60;;;;;;6195138;28;20054;-76
2023/10/01 08:12:22;;;;;;;10.30;2.85;;;19.50;56.20;;;;;;6189630;28;20054;-74
2023/10/01 08:15:31;;;;;;;7.57;3.00;;;19.50;54.90;;;;;;6194599;28;20058;-74
2023/10/01 08:18:36;;;;;;;13.90;3.42;;;19.80;56.10;;;;;;6170218;28;20055;-74
2023/10/01 08:21:37;;;;;;;10.45;3.80;;;20.00;52.00;;;;;;6193345;28;20418;-74
2023/10/01 08:24:39;;;;;;;7.75;2.70;;;20.20;49.30;;;;;;6193833;28;20070;-74
2023/10/01 08:28:26;;;;;;;14.30;5.47;;;20.40;48.20;;;;;;6193334;28;20050;-74
2023/10/01 08:31:20;;;;;;;10.05;3.10;;;20.90;45.60;;;;;;6190476;28;20058;-75
2023/10/01 08:34:22;;;;;;;11.88;3.25;;;21.50;45.10;;;;;;6146257;29;20174;-75
2023/10/01 08:37:31;;;;;;;9.82;3.85;;;22.10;30.00;;;;;;6192583;28;20084;-75
2023/10/01 08:40:41;;;;;;;9.10;3.50;;;22.90;23.50;;;;;;6146457;28;20098;-74
2023/10/01 08:43:43;;;;;;;11.95;3.50;;;23.30;23.40;;;;;;6215057;28;20053;-75
2023/10/01 08:46:45;;;;;;;9.07;2.60;;;23.60;23.60;;;;;;6221384;28;20054;-74
2023/10/01 08:49:47;;;;;;;10.13;3.08;;;23.10;24.40;;;;;;6243044;28;20065;-75
2023/10/01 08:53:00;;;;;;;9.88;3.08;;;22.60;21.50;;;;;;6246057;28;20049;-75
2023/10/01 08:59:23;;;;;;;12.20;4.10;;;22.20;30.80;;;;;;6222276;28;20084;-75
2023/10/01 09:02:24;;;;;;;9.10;3.35;;;22.10;29.10;;;;;;6196870;28;20085;-75
2023/10/01 09:05:26;;;;;;;9.30;3.20;;;21.80;33.10;;;;;;6244027;28;20432;-74
2023/10/01 09:08:42;;;;;;;9.70;3.50;;;21.90;35.10;;;;;;6220949;28;20465;-73
2023/10/01 09:11:49;;;;;;;12.10;3.20;;;21.80;32.70;;;;;;6196713;28;20426;-73
2023/10/01 09:14:51;;;;;;;10.82;3.47;;;22.00;31.20;;;;;;6189484;28;20066;-74
2023/10/01 09:17:59;;;;;;;12.13;3.28;;;22.30;31.60;;;;;;6243071;28;20100;-73
2023/10/01 09:21:20;;;;;;;8.93;3.05;;;22.30;30.50;;;;;;6195928;28;20577;-73
2023/10/01 09:24:42;;;;;;;11.75;3.47;;;22.50;30.50;;;;;;6220866;28;20084;-73
2023/10/01 09:27:48;;;;;;;11.52;3.08;;;22.40;27.60;;;;;;6201302;28;20053;-73
2023/10/01 09:30:53;;;;;;;12.18;3.55;;;22.40;25.70;;;;;;6244125;28;20057;-73
2023/10/01 09:33:55;;;;;;;10.15;3.28;;;22.30;28.50;;;;;;6195833;28;20553;-73
2023/10/01 09:36:57;;;;;;;11.15;3.47;;;22.40;28.40;;;;;;6243415;28;20492;-74
2023/10/01 09:40:03;;;;;;;10.57;3.20;;;22.30;25.60;;;;;;6220369;28;20081;-73
2023/10/01 09:43:05;;;;;;;9.85;3.30;;;22.20;28.30;;;;;;6209320;28;20053;-73
2023/10/01 09:46:07;;;;;;;11.25;4.03;;;22.00;30.60;;;;;;6220410;28;20085;-73
2023/10/01 09:49:09;;;;;;;11.65;3.22;;;22.20;31.10;;;;;;6243926;28;20049;-73
2023/10/01 09:52:10;;;;;;;11.15;3.38;;;22.50;29.40;;;;;;6218331;28;20065;-74
2023/10/01 09:55:24;;;;;;;10.23;3.33;;;22.90;29.80;;;;;;6243591;28;20053;-76
2023/10/01 09:58:26;;;;;;;15.85;4.05;;;23.10;19.50;;;;;;6228506;28;20065;-76
2023/10/01 10:01:28;;;;;;;11.40;3.67;;;23.00;24.60;;;;;;6220077;28;20413;-76
2023/10/01 10:04:32;;;;;;;7.85;3.20;;;23.20;20.40;;;;;;6243199;28;20084;-76
2023/10/01 10:07:34;;;;;;;12.27;3.45;;;23.50;18.80;;;;;;6219558;28;20062;-76
2023/10/01 10:10:35;;;;;;;9.48;3.17;;;23.60;19.80;;;;;;6243632;28;20053;-76
2023/10/01 10:13:46;;;;;;;9.13;3.40;;;23.70;18.40;;;;;;6223973;28;20457;-76
2023/10/01 10:16:55;;;;;;;11.57;3.33;;;23.90;17.00;;;;;;6195090;28;20137;-76
2023/10/01 10:19:57;;;;;;;9.32;3.25;;;24.00;16.40;;;;;;6219498;28;20068;-75
2023/10/01 10:22:59;;;;;;;10.20;3.38;;;23.70;16.20;;;;;;6242600;28;20052;-75
2023/10/01 10:26:00;;;;;;;8.98;3.00;;;23.60;17.60;;;;;;6219428;28;20053;-76
2023/10/01 10:29:13;;;;;;;11.88;3.50;;;23.50;16.90;;;;;;6221852;28;20053;-76
2023/10/01 10:32:15;;;;;;;9.15;3.22;;;23.30;18.30;;;;;;6219197;28;20061;-76
2023/10/01 10:35:16;;;;;;;13.80;3.70;;;23.10;20.60;;;;;;6243140;28;20053;-77
2023/10/01 10:38:19;;;;;;;9.25;2.97;;;22.90;19.00;;;;;;6219491;28;20058;-77
2023/10/01 10:41:25;;;;;;;9.30;3.13;;;22.90;22.70;;;;;;6243743;28;20053;-76
2023/10/01 10:44:28;;;;;;;11.00;2.90;;;22.70;24.90;;;;;;6217847;28;20054;-76
2023/10/01 10:47:29;;;;;;;8.55;3.22;;;22.60;25.20;;;;;;6243407;28;20505;-76
2023/10/01 10:50:31;;;;;;;15.57;3.85;;;22.50;26.90;;;;;;6225127;28;20099;-76
2023/10/01 10:53:37;;;;;;;11.02;3.40;;;22.60;24.20;;;;;;6243324;28;20056;-77
2023/10/01 10:56:39;;;;;;;9.23;3.10;;;23.10;23.70;;;;;;6193249;28;20058;-76
2023/10/01 10:59:40;;;;;;;9.95;3.45;;;23.30;21.70;;;;;;6235786;28;20059;-76
2023/10/01 11:02:55;;;;;;;11.83;3.90;;;23.50;19.80;;;;;;6194346;28;20054;-79
2023/10/01 11:05:56;;;;;;;12.88;3.78;;;23.40;17.00;;;;;;6194708;28;20058;-75
2023/10/01 11:08:58;;;;;;;8.80;3.00;;;24.20;14.40;;;;;;6242186;28;20060;-76
2023/10/01 11:12:01;;;;;;;10.52;3.63;;;24.00;13.50;;;;;;6219512;28;20053;-75
2023/10/01 11:15:23;;;;;;;12.25;4.30;;;24.20;15.40;;;;;;6236139;28;20119;-76
2023/10/01 11:18:26;;;;;;;11.75;3.25;;;24.40;13.50;;;;;;6193920;28;20073;-74
2023/10/01 11:21:31;;;;;;;13.02;4.20;;;24.40;13.00;;;;;;6241986;28;20501;-75
2023/10/01 11:24:33;;;;;;;10.45;3.28;;;24.10;14.00;;;;;;6194271;28;20181;-74
2023/10/01 11:27:44;;;;;;;13.13;3.60;;;23.60;13.50;;;;;;6236939;28;20523;-76
2023/10/01 11:30:46;;;;;;;12.23;3.67;;;23.30;16.00;;;;;;6218257;28;20061;-77
2023/10/01 11:33:48;;;;;;;10.98;3.60;;;23.40;18.60;;;;;;6197742;28;20080;-77
2023/10/01 11:36:56;;;;;;;9.77;3.58;;;23.30;16.90;;;;;;6246464;28;20154;-77
2023/10/01 11:39:58;;;;;;;10.02;3.95;;;23.10;20.60;;;;;;6200441;28;20054;-76
2023/10/01 11:43:05;;;;;;;11.48;3.63;;;23.40;18.10;;;;;;6233894;28;20152;-75
2023/10/01 11:46:18;;;;;;;13.75;3.67;;;23.50;17.50;;;;;;6221971;28;20144;-78
2023/10/01 11:49:32;;;;;;;14.48;4.63;;;23.50;16.80;;;;;;6199103;28;20054;-78
2023/10/01 11:52:33;;;;;;;13.98;3.42;;;23.80;16.30;;;;;;6198521;28;20395;-76
2023/10/01 11:55:35;;;;;;;11.35;4.07;;;24.40;10.60;;;;;;6244742;28;20053;-77
2023/10/01 11:58:39;;;;;;;8.98;3.22;;;24.70;13.10;;;;;;6229159;28;20140;-78
2023/10/01 12:01:47;;;;;;;9.98;3.10;;;24.80;9.00;;;;;;6222458;28;20460;-77
2023/10/01 12:04:56;;;;;;;9.23;3.28;;;24.90;4.90;;;;;;6198275;28;20490;-77
2023/10/01 12:07:58;;;;;;;12.45;3.75;;;25.00;5.50;;;;;;6198254;28;20058;-77
2023/10/01 12:11:26;;;;;;;8.75;3.30;;;24.60;1.00;;;;;;6245901;28;20410;-75
2023/10/01 12:14:25;;;;;;;9.70;3.50;;;24.40;4.40;;;;;;6228025;28;20389;-80
2023/10/01 12:17:26;;;;;;;8.45;2.83;;;24.50;4.30;;;;;;6220692;28;20054;-77
2023/10/01 12:20:32;;;;;;;12.20;3.53;;;24.50;5.60;;;;;;6246095;28;20080;-75
2023/10/01 12:23:33;;;;;;;9.77;3.72;;;24.40;4.90;;;;;;6221034;28;20057;-76
2023/10/01 12:26:36;;;;;;;12.25;3.40;;;24.10;6.10;;;;;;6245770;28;20076;-76
2023/10/01 12:29:48;;;;;;;14.15;3.50;;;24.00;9.20;;;;;;6215998;28;20406;-75
2023/10/01 12:32:50;;;;;;;7.60;2.80;;;24.20;7.10;;;;;;6197470;28;20081;-75
2023/10/01 12:35:53;;;;;;;12.02;3.33;;;24.20;6.40;;;;;;6245320;28;20045;-75
2023/10/01 12:39:16;;;;;;;8.02;2.97;;;24.00;7.70;;;;;;6221821;28;20064;-76
2023/10/01 12:42:16;;;;;;;9.73;3.05;;;24.30;7.20;;;;;;6197075;28;20054;-76
2023/10/01 12:45:27;;;;;;;10.65;3.47;;;24.20;4.30;;;;;;6217321;28;20057;-76
2023/10/01 12:48:29;;;;;;;9.63;3.10;;;24.50;4.10;;;;;;6197752;28;20050;-76
2023/10/01 12:51:37;;;;;;;10.02;3.47;;;24.60;1.60;;;;;;6229849;28;20056;-76
2023/10/01 12:54:38;;;;;;;12.55;3.60;;;24.60;1.20;;;;;;6247243;28;20060;-77
2023/10/01 12:57:41;;;;;;;11.48;3.42;;;24.60;1.00;;;;;;6222827;28;20167;-76
2023/10/01 13:00:46;;;;;;;11.52;3.30;;;24.40;1.80;;;;;;6245863;28;20674;-77
2023/10/01 13:03:49;;;;;;;10.43;3.65;;;24.30;1.00;;;;;;6221134;28;20108;-76
2023/10/01 13:06:51;;;;;;;13.32;3.50;;;24.30;3.10;;;;;;6244946;28;20064;-76
2023/10/01 13:09:53;;;;;;;9.48;3.50;;;24.40;5.20;;;;;;6221319;28;20050;-77
2023/10/01 13:13:05;;;;;;;11.23;3.88;;;24.60;1.20;;;;;;6237151;28;20072;-77
2023/10/01 13:16:16;;;;;;;10.68;3.40;;;24.40;1.00;;;;;;6220822;28;20504;-76
2023/10/01 13:19:23;;;;;;;12.10;3.88;;;24.50;3.00;;;;;;6196820;28;20062;-77
2023/10/01 13:22:25;;;;;;;14.13;4.60;;;24.60;1.00;;;;;;6196741;28;20493;-77
2023/10/01 13:25:26;;;;;;;14.63;4.45;;;25.20;1.00;;;;;;6244112;28;20060;-77
2023/10/01 13:28:43;;;;;;;10.50;3.80;;;25.40;1.00;;;;;;6228782;28;20077;-77
2023/10/01 13:32:15;;;;;;;12.88;3.90;;;25.80;1.00;;;;;;6196460;28;20410;-77
2023/10/01 13:35:32;;;;;;;11.88;3.97;;;26.40;1.00;;;;;;6196246;28;20577;-77
2023/10/01 14:11:26;;;;;;;14.32;4.18;;;25.00;1.00;;;;;;6243180;28;20057;-76
2023/10/01 14:14:33;;;;;;;12.55;4.30;;;24.70;1.00;;;;;;6205030;28;20458;-76
2023/10/01 14:17:35;;;;;;;11.40;4.43;;;24.70;1.00;;;;;;6226580;28;20054;-78
2023/10/01 14:20:37;;;;;;;12.48;4.03;;;24.70;1.00;;;;;;6243576;28;20144;-77
2023/10/01 14:23:45;;;;;;;22.98;4.30;;;24.70;1.00;;;;;;6219517;28;20493;-77
2023/10/01 14:26:50;;;;;;;13.82;4.78;;;24.90;1.00;;;;;;6195437;28;20058;-76
2023/10/01 14:30:02;;;;;;;15.73;4.78;;;24.90;1.00;;;;;;6241285;28;20110;-77
2023/10/01 14:33:23;;;;;;;12.07;4.47;;;24.60;1.00;;;;;;6195107;28;20607;-77
2023/10/01 14:36:26;;;;;;;11.65;4.28;;;24.60;1.00;;;;;;6219294;28;20060;-76
2023/10/01 14:39:30;;;;;;;11.85;3.92;;;24.90;1.00;;;;;;6243112;28;20054;-76
2023/10/01 14:42:36;;;;;;;16.10;4.22;;;25.30;1.00;;;;;;6219175;28;20425;-76
2023/10/01 14:45:44;;;;;;;11.73;3.65;;;25.00;1.00;;;;;;6194846;28;20062;-77
2023/10/01 14:48:46;;;;;;;14.60;4.00;;;24.90;1.00;;;;;;6242972;28;20131;-77
2023/10/01 14:51:56;;;;;;;13.35;4.30;;;24.90;1.00;;;;;;6219468;28;20061;-77
2023/10/01 14:55:02;;;;;;;14.48;4.18;;;24.70;1.00;;;;;;6241708;28;20524;-77
2023/10/01 14:58:04;;;;;;;16.45;4.78;;;24.60;1.00;;;;;;6224676;28;20056;-77
2023/10/01 15:01:08;;;;;;;15.50;4.47;;;24.40;1.00;;;;;;6243300;28;20049;-77
2023/10/01 15:04:29;;;;;;;14.57;4.85;;;24.10;1.00;;;;;;6218579;28;20192;-76
2023/10/01 15:07:34;;;;;;;16.02;4.60;;;24.00;1.00;;;;;;6195810;28;20549;-76
2023/10/01 15:10:35;;;;;;;15.02;4.90;;;24.00;1.00;;;;;;6247681;28;20053;-77
2023/10/01 15:13:38;;;;;;;11.30;3.83;;;24.00;1.00;;;;;;6230674;28;20057;-78
2023/10/01 15:16:43;;;;;;;14.00;4.22;;;24.20;1.00;;;;;;6199674;28;20062;-78
2023/10/01 15:20:05;;;;;;;14.95;4.50;;;24.20;1.00;;;;;;6223449;28;20521;-78
2023/10/01 15:23:15;;;;;;;11.43;3.78;;;23.90;1.00;;;;;;6247380;28;20054;-77
2023/10/01 15:26:17;;;;;;;13.68;4.18;;;23.80;1.00;;;;;;6199098;28;20057;-77
2023/10/01 15:29:19;;;;;;;15.43;5.07;;;23.80;1.00;;;;;;6244752;28;20061;-77
2023/10/01 15:32:20;;;;;;;20.50;4.70;;;23.70;1.00;;;;;;6222291;28;20056;-77
2023/10/01 15:35:25;;;;;;;14.68;4.75;;;23.60;1.00;;;;;;6247012;28;20061;-76
2023/10/01 15:38:27;;;;;;;14.65;4.45;;;23.40;3.70;;;;;;6222659;28;20509;-74
2023/10/01 15:41:28;;;;;;;11.15;4.32;;;23.40;4.30;;;;;;6246826;28;20504;-77
2023/10/01 15:44:43;;;;;;;14.15;4.35;;;23.30;4.60;;;;;;6231013;28;20184;-76
2023/10/01 15:47:48;;;;;;;14.07;4.25;;;23.30;6.60;;;;;;6198552;28;20469;-74
2023/10/01 15:50:52;;;;;;;14.50;4.32;;;23.20;5.50;;;;;;6236646;28;20517;-76
2023/10/01 15:53:55;;;;;;;15.88;4.43;;;23.10;6.70;;;;;;6247223;28;20050;-75
2023/10/01 15:56:56;;;;;;;12.38;4.13;;;22.90;9.30;;;;;;6223005;28;20058;-74
2023/10/01 15:59:58;;;;;;;15.77;4.43;;;22.80;9.40;;;;;;6244619;28;20060;-74
2023/10/01 16:03:03;;;;;;;15.52;4.95;;;22.70;12.00;;;;;;6223182;28;20058;-76
2023/10/01 16:06:08;;;;;;;16.17;4.47;;;22.80;14.10;;;;;;6197876;28;20098;-77
2023/10/01 16:09:11;;;;;;;15.70;4.45;;;22.70;12.00;;;;;;6246432;28;20049;-77
2023/10/01 16:12:16;;;;;;;19.65;4.75;;;22.70;14.60;;;;;;6222907;28;20057;-75
2023/10/01 16:15:17;;;;;;;15.57;4.75;;;22.70;13.90;;;;;;6194264;28;20061;-77
2023/10/01 16:18:19;;;;;;;16.58;4.70;;;22.70;15.30;;;;;;6197294;28;20051;-75
2023/10/01 16:21:21;;;;;;;16.52;4.63;;;22.70;14.00;;;;;;6243860;28;20057;-75
2023/10/01 16:24:23;;;;;;;13.68;4.72;;;22.70;12.80;;;;;;6222401;28;20060;-75
2023/10/01 16:27:25;;;;;;;14.18;4.25;;;22.70;14.30;;;;;;6244388;28;20053;-76
2023/10/01 16:30:29;;;;;;;13.50;4.40;;;22.50;15.10;;;;;;6218111;28;20069;-76
2023/10/01 16:33:40;;;;;;;14.82;4.68;;;22.60;16.00;;;;;;6197661;28;20050;-76
2023/10/01 16:36:42;;;;;;;18.27;5.15;;;22.50;15.30;;;;;;6197535;28;20104;-76
2023/10/01 16:39:47;;;;;;;19.63;4.35;;;22.30;16.10;;;;;;6246222;28;20060;-76
2023/10/01 16:42:51;;;;;;;19.70;5.22;;;22.30;16.10;;;;;;6218659;28;20057;-76